Margarita, Argentina
Current Conditions -  °F | °C
As of 8:00 AM on Saturday 20 Dec 2014 (Local Time) from SARE Reporting Station
Clear Clear  
Wind Chill: 82°   Ceiling: Unl
Heat Index: 89°   Visibility: 6mi
Dew Point: 75°   Wind: 10mph
Humidity: 79%   Direction: 20°NNE
Pressure: 29.56"   Gusts: NA
Location:  29.68°S, 60.25°W
Report Text: SARE 201100Z 02009KT CAVOK 28/24 Q1001
Loading
Personal Weather Stations






























Interactive Weather Map New forecast layout! Learn more

10-Day Weather Forecast

Advertisements
Track Severe Weather on mobile